»·PEaware :: SKW2749 KLAX-KSBA

SKW2749 :: KLAX-KSBA

FLIGHT INFORMATION

Flight Status: Arrived
Operator:
SkyWest Airlines
More flights by this operator :: More flights under this callsign
Pilot: Paul K. (16555)
Aircraft: SAAB 340
(SF34)
More flights by this aircraft type
Origin: KLAX Los Angeles Intl
United States
Destination: KSBA Santa Barbara Mun
United States
More flights between these airports :: More routes between these airports
Route: +VTU8 VTU VTU282R KWANG
File this flight plan on PilotEdge
Remarks: TEC route LAXP50
Altitude:
(Current/Filed)
6,000ft
Speed:
(Current/Filed)
220kts
Departed: 28-Aug-18 08:51 PM
Arrived: 28-Aug-18 09:17 PM
Distance/Time
Traveled:
77nm/0:26
Distance/Time
To Go:
Arrived

Flight Plot

Page will automatically refresh every two minutes.

Flight plan parsing failed; only flown route is shown


Map Options




Map Legend


Flown Route
Filed Route
Departure Airport
Arrival Airport
Navaid (VOR, NDB)
Fix

Horizontal Profiles

Position Reports

Time Latitude Longitude Heading Altitude Ground
Speed
28-Aug-18 20:33 33.941082 -118.392825 0 130ft 0kts
28-Aug-18 20:34 33.941082 -118.392825 0 130ft 0kts
28-Aug-18 20:35 33.941082 -118.392825 0 130ft 0kts
28-Aug-18 20:36 33.941082 -118.392825 0 130ft 0kts
28-Aug-18 20:37 33.941082 -118.392825 0 130ft 0kts
28-Aug-18 20:38 33.941082 -118.392825 0 130ft 0kts
28-Aug-18 20:39 33.941082 -118.392825 0 130ft 0kts
28-Aug-18 20:40 33.941082 -118.392825 0 130ft 0kts
28-Aug-18 20:41 33.941082 -118.392825 0 130ft 0kts
28-Aug-18 20:42 33.941082 -118.392825 0 130ft 0kts
28-Aug-18 20:43 33.941082 -118.392825 0 130ft 0kts
28-Aug-18 20:44 33.941082 -118.392825 0 130ft 0kts
28-Aug-18 20:45 33.941082 -118.392825 0 130ft 0kts
28-Aug-18 20:46 33.941082 -118.392825 0 130ft 0kts
28-Aug-18 20:47 33.941108 -118.392822 8 130ft 1kts
28-Aug-18 20:48 33.940055 -118.392170 165 130ft 8kts
28-Aug-18 20:49 33.939979 -118.388196 82 130ft 17kts
28-Aug-18 20:50 33.940514 -118.383013 83 130ft 15kts
28-Aug-18 20:51 33.939820 -118.380231 249 130ft 4kts
28-Aug-18 20:52 33.937454 -118.403354 263 634ft 138kts
28-Aug-18 20:53 33.931941 -118.451835 262 3212ft 151kts
28-Aug-18 20:54 33.924864 -118.501834 261 4921ft 161kts
28-Aug-18 20:55 33.916696 -118.568162 263 4999ft 227kts
28-Aug-18 20:56 33.907793 -118.641421 263 5983ft 218kts
28-Aug-18 20:57 33.930180 -118.708925 304 5995ft 240kts
28-Aug-18 20:58 33.967409 -118.776850 303 5992ft 243kts
28-Aug-18 20:59 34.004153 -118.844428 303 5995ft 240kts
28-Aug-18 21:00 34.040557 -118.911580 302 5997ft 238kts
28-Aug-18 21:01 34.076594 -118.978206 302 5999ft 237kts
28-Aug-18 21:02 34.106821 -119.034185 301 5999ft 237kts
28-Aug-18 21:03 34.137801 -119.103750 295 5997ft 237kts
28-Aug-18 21:04 34.167585 -119.174629 295 5994ft 237kts
28-Aug-18 21:05 34.197209 -119.245404 295 5991ft 237kts
28-Aug-18 21:06 34.226846 -119.316376 295 5990ft 236kts
28-Aug-18 21:07 34.254491 -119.382744 295 5265ft 208kts
28-Aug-18 21:08 34.274294 -119.430328 295 4667ft 186kts
28-Aug-18 21:09 34.296728 -119.484138 294 4002ft 177kts
28-Aug-18 21:10 34.319189 -119.542251 292 3986ft 205kts
28-Aug-18 21:11 34.342503 -119.606701 292 3464ft 211kts
28-Aug-18 21:12 34.370675 -119.665719 308 2969ft 196kts
28-Aug-18 21:13 34.402285 -119.706547 331 2719ft 137kts
28-Aug-18 21:14 34.427505 -119.732311 287 1745ft 117kts
28-Aug-18 21:15 34.429447 -119.770646 266 942ft 112kts
28-Aug-18 21:16 34.428604 -119.808119 266 469ft 110kts
28-Aug-18 21:17 34.427663 -119.843499 267 18ft 54kts
28-Aug-18 21:18 34.426545 -119.845531 94 18ft 7kts
28-Aug-18 21:19 34.426629 -119.841511 88 18ft 14kts
28-Aug-18 21:20 34.425515 -119.837934 137 18ft 10kts
28-Aug-18 21:21 34.425480 -119.837311 148 18ft 0kts
28-Aug-18 21:22 34.425480 -119.837311 148 18ft 0kts
28-Aug-18 21:23 34.425480 -119.837311 148 18ft 0kts
28-Aug-18 21:24 34.425480 -119.837311 148 18ft 0kts
28-Aug-18 21:25 34.425480 -119.837311 148 18ft 0kts
28-Aug-18 21:26 34.425480 -119.837311 148 18ft 0kts
28-Aug-18 21:27 34.425480 -119.837311 148 18ft 0kts
28-Aug-18 21:28 34.425480 -119.837311 148 18ft 0kts
28-Aug-18 21:29 34.425477 -119.837309 148 18ft 0kts
28-Aug-18 21:30 34.425758 -119.837368 119 18ft 0kts
28-Aug-18 21:31 34.425695 -119.837135 138 18ft 0kts
28-Aug-18 21:32 34.425695 -119.837135 95 18ft 0kts
28-Aug-18 21:33 34.425695 -119.837135 95 18ft 0kts

Navigation Log

Ident Type
Flight plan parsing failed, navigation log unavailable